Time;durP1;ratioP1;P1;durP2;ratioP2;P2;SDS_P1;SDS_P2;PMS_P1;PMS_P2;Temp;Humidity;BMP_temperature;BMP_pressure;BME280_temperature;BME280_humidity;BME280_pressure;Samples;Min_cycle;Max_cycle;Signal;HPM_P1;HPM_P2
2021/06/14 00:01:36;;;;;;;3.70;3.27;;;17.90;94.90;;;;;;5054738;28;20198;-54
2021/06/14 00:04:03;;;;;;;3.93;3.10;;;17.90;95.10;;;;;;5054975;28;20191;-52
2021/06/14 00:06:28;;;;;;;3.93;2.97;;;17.90;95.10;;;;;;5054810;28;20763;-53
2021/06/14 00:08:54;;;;;;;4.87;2.67;;;17.80;95.30;;;;;;5054781;28;20393;-52
2021/06/14 00:11:20;;;;;;;5.13;2.77;;;17.70;95.70;;;;;;5054384;28;20252;-52
2021/06/14 00:13:45;;;;;;;3.63;3.00;;;17.70;96.10;;;;;;5054968;28;20197;-56
2021/06/14 00:16:11;;;;;;;3.13;2.83;;;17.80;96.00;;;;;;5054614;28;20270;-54
2021/06/14 00:18:38;;;;;;;5.40;3.20;;;17.70;96.30;;;;;;5054495;28;20675;-54
2021/06/14 00:21:07;;;;;;;3.70;3.40;;;17.60;96.20;;;;;;5054746;28;20471;-55
2021/06/14 00:23:33;;;;;;;3.63;3.33;;;17.50;96.80;;;;;;5057193;28;20446;-54
2021/06/14 00:26:00;;;;;;;4.00;3.07;;;17.50;97.00;;;;;;5034207;28;20962;-55
2021/06/14 00:28:27;;;;;;;3.20;2.80;;;17.30;97.20;;;;;;5034493;28;20751;-55
2021/06/14 00:30:53;;;;;;;3.40;3.10;;;17.30;97.70;;;;;;5034103;28;20440;-53
2021/06/14 00:33:20;;;;;;;4.37;3.03;;;17.30;97.80;;;;;;5034597;28;20414;-55
2021/06/14 00:35:47;;;;;;;5.60;3.30;;;17.20;97.60;;;;;;5034592;28;20416;-51
2021/06/14 00:38:14;;;;;;;3.53;3.10;;;17.20;97.80;;;;;;5034525;28;20420;-53
2021/06/14 00:40:40;;;;;;;3.47;2.97;;;17.30;97.90;;;;;;5016273;28;20460;-54
2021/06/14 00:43:07;;;;;;;5.97;3.33;;;17.20;98.10;;;;;;5033962;28;20413;-55
2021/06/14 00:45:35;;;;;;;6.83;3.70;;;17.30;98.50;;;;;;5033388;28;20872;-52
2021/06/14 00:48:03;;;;;;;3.87;2.93;;;17.20;98.50;;;;;;5034270;28;20416;-54
2021/06/14 00:50:45;;;;;;;4.07;3.40;;;17.20;98.80;;;;;;5034127;28;20424;-52
2021/06/14 00:53:29;;;;;;;7.43;3.80;;;17.10;99.20;;;;;;5033950;28;20873;-55
2021/06/14 00:55:56;;;;;;;3.60;3.27;;;16.90;99.50;;;;;;5053211;28;20500;-55
2021/06/14 00:58:22;;;;;;;4.77;3.17;;;16.80;99.70;;;;;;5053472;28;20411;-51
2021/06/14 01:00:48;;;;;;;3.47;3.17;;;16.90;99.80;;;;;;5053371;28;20775;-56
2021/06/14 01:03:13;;;;;;;4.20;3.43;;;16.80;99.80;;;;;;5053868;28;20412;-52
2021/06/14 01:05:52;;;;;;;4.77;3.17;;;16.80;99.90;;;;;;5053771;28;20197;-53
2021/06/14 01:08:18;;;;;;;4.17;3.13;;;16.80;99.90;;;;;;5053564;28;20162;-53
2021/06/14 01:10:44;;;;;;;6.50;3.83;;;16.70;99.90;;;;;;5053404;28;20515;-54
2021/06/14 01:13:22;;;;;;;5.07;4.00;;;16.70;99.90;;;;;;5053228;28;20421;-53
2021/06/14 01:15:53;;;;;;;3.63;3.20;;;16.70;99.90;;;;;;5053071;28;21019;-55
2021/06/14 01:18:29;;;;;;;3.37;3.07;;;16.70;99.90;;;;;;5053653;28;20954;-56
2021/06/14 01:20:59;;;;;;;3.77;3.20;;;16.60;99.90;;;;;;5053540;28;20428;-53
2021/06/14 01:23:47;;;;;;;3.97;3.20;;;16.60;99.90;;;;;;5053615;28;20482;-54
2021/06/14 01:26:21;;;;;;;4.00;3.20;;;16.50;99.90;;;;;;5053378;28;20415;-55
2021/06/14 01:28:50;;;;;;;4.03;3.63;;;16.40;99.90;;;;;;5053574;28;20437;-55
2021/06/14 01:31:17;;;;;;;4.50;4.10;;;16.30;99.90;;;;;;5053138;28;20497;-55
2021/06/14 01:33:44;;;;;;;5.03;3.77;;;16.30;99.90;;;;;;5053221;28;20765;-54
2021/06/14 01:36:19;;;;;;;4.80;3.30;;;16.50;99.90;;;;;;5053499;28;20430;-55
2021/06/14 01:38:47;;;;;;;4.47;3.27;;;16.60;99.90;;;;;;5053526;28;20899;-52
2021/06/14 01:41:15;;;;;;;3.40;3.10;;;16.40;99.90;;;;;;5053094;28;20439;-55
2021/06/14 01:43:41;;;;;;;4.60;3.30;;;16.30;99.90;;;;;;5035213;28;20842;-52
2021/06/14 01:46:14;;;;;;;5.60;3.30;;;16.30;99.90;;;;;;5052829;28;20522;-52
2021/06/14 01:48:42;;;;;;;6.07;3.80;;;16.20;99.90;;;;;;5053237;28;20387;-50
2021/06/14 01:51:10;;;;;;;4.90;3.50;;;16.20;99.90;;;;;;5052924;28;20440;-50
2021/06/14 01:53:37;;;;;;;3.57;3.27;;;16.20;99.90;;;;;;5053022;28;20918;-53
2021/06/14 01:56:03;;;;;;;3.93;3.53;;;16.20;99.90;;;;;;5052922;28;20410;-48
2021/06/14 01:58:30;;;;;;;4.87;3.67;;;16.10;99.90;;;;;;5056426;28;20902;-53
2021/06/14 02:00:57;;;;;;;3.73;3.30;;;16.00;99.90;;;;;;5057004;28;20428;-52
2021/06/14 02:03:23;;;;;;;7.27;3.20;;;16.10;99.90;;;;;;5057545;28;20401;-54
2021/06/14 02:05:50;;;;;;;4.40;3.67;;;16.10;99.90;;;;;;5056982;28;20485;-54
2021/06/14 02:08:17;;;;;;;3.63;3.33;;;16.20;99.90;;;;;;5056995;28;20405;-52
2021/06/14 02:10:44;;;;;;;3.90;3.30;;;16.30;99.90;;;;;;5057091;28;20502;-52
2021/06/14 02:13:12;;;;;;;4.20;3.10;;;16.40;99.90;;;;;;5056686;28;20407;-51
2021/06/14 02:15:37;;;;;;;4.40;3.60;;;16.40;99.90;;;;;;5059101;28;20765;-54
2021/06/14 02:18:04;;;;;;;5.47;3.53;;;16.40;99.90;;;;;;5056866;28;20485;-54
2021/06/14 02:20:30;;;;;;;4.20;3.80;;;16.30;99.90;;;;;;5056896;28;20228;-56
2021/06/14 02:22:56;;;;;;;6.20;3.67;;;16.20;99.90;;;;;;5056880;28;20894;-54
2021/06/14 02:25:21;;;;;;;4.13;3.20;;;16.30;99.90;;;;;;5056458;28;20244;-50
2021/06/14 02:27:47;;;;;;;4.20;3.37;;;16.30;99.90;;;;;;5055736;28;20181;-53
2021/06/14 02:30:22;;;;;;;4.50;4.10;;;16.20;99.90;;;;;;5056093;28;20203;-51
2021/06/14 02:32:49;;;;;;;4.40;3.70;;;16.10;99.90;;;;;;5057052;28;20243;-56
2021/06/14 02:35:16;;;;;;;7.67;3.40;;;16.20;99.90;;;;;;5056443;28;20413;-51
2021/06/14 02:37:49;;;;;;;4.93;3.80;;;16.30;99.90;;;;;;5056394;28;20443;-55
2021/06/14 02:42:40;;;;;;;5.73;3.50;;;16.10;99.90;;;;;;5091743;22;20565;-50
2021/06/14 02:45:07;;;;;;;6.57;3.63;;;16.20;99.90;;;;;;5076304;28;20193;-50
2021/06/14 02:47:34;;;;;;;5.40;3.70;;;16.10;99.90;;;;;;5076154;28;20402;-53
2021/06/14 02:50:01;;;;;;;4.00;3.70;;;16.10;99.90;;;;;;5076144;28;20859;-52
2021/06/14 02:52:29;;;;;;;5.10;3.10;;;16.00;99.90;;;;;;5076034;28;20515;-52
2021/06/14 02:54:58;;;;;;;5.70;4.10;;;15.90;99.90;;;;;;5076077;28;20429;-50
2021/06/14 02:57:27;;;;;;;5.67;4.00;;;15.80;99.90;;;;;;5056082;28;20435;-48
2021/06/14 02:59:54;;;;;;;4.33;3.93;;;15.70;99.90;;;;;;5076871;28;20924;-51
2021/06/14 03:02:22;;;;;;;5.47;4.37;;;15.70;99.90;;;;;;5078169;28;20416;-50
2021/06/14 03:04:48;;;;;;;6.73;3.90;;;15.70;99.90;;;;;;5077227;28;20448;-51
2021/06/14 03:07:19;;;;;;;4.20;3.80;;;15.50;99.90;;;;;;5077365;28;20397;-51
2021/06/14 03:09:44;;;;;;;4.37;3.80;;;15.50;99.90;;;;;;5077371;28;20153;-51
2021/06/14 03:12:10;;;;;;;4.50;3.57;;;15.50;99.90;;;;;;5076017;28;20423;-50
2021/06/14 03:14:36;;;;;;;4.13;3.40;;;15.60;99.90;;;;;;5076725;28;20575;-50
2021/06/14 03:17:04;;;;;;;5.10;4.10;;;15.70;99.90;;;;;;5075809;28;20456;-51
2021/06/14 03:19:30;;;;;;;4.47;4.03;;;15.80;99.90;;;;;;5076072;28;20180;-52
2021/06/14 03:21:55;;;;;;;4.30;3.90;;;15.70;99.90;;;;;;5075777;28;20980;-51
2021/06/14 03:24:21;;;;;;;4.03;3.73;;;15.70;99.90;;;;;;5075914;28;20461;-53
2021/06/14 03:26:47;;;;;;;4.80;3.70;;;15.70;99.90;;;;;;5075505;28;20198;-53
2021/06/14 03:29:23;;;;;;;3.63;3.33;;;15.70;99.90;;;;;;5075687;28;20403;-51
2021/06/14 03:31:49;;;;;;;3.90;3.50;;;15.70;99.90;;;;;;5075318;28;20417;-50
2021/06/14 03:34:17;;;;;;;4.83;4.00;;;15.60;99.90;;;;;;5075874;28;20408;-51
2021/06/14 03:36:44;;;;;;;4.80;3.53;;;15.50;99.90;;;;;;5075832;28;20410;-52
2021/06/14 03:39:09;;;;;;;4.10;3.80;;;15.50;99.90;;;;;;5076668;28;20867;-51
2021/06/14 03:41:40;;;;;;;6.10;4.07;;;15.40;99.90;;;;;;5075041;28;20597;-52
2021/06/14 03:44:06;;;;;;;4.33;3.60;;;15.50;99.90;;;;;;5076033;28;20190;-51
2021/06/14 03:46:32;;;;;;;4.13;3.73;;;15.60;99.90;;;;;;5075202;28;20408;-50
2021/06/14 03:48:57;;;;;;;4.50;4.10;;;15.40;99.90;;;;;;5075942;28;20573;-50
2021/06/14 03:51:23;;;;;;;5.20;4.20;;;15.40;99.90;;;;;;5075257;28;20195;-53
2021/06/14 03:53:57;;;;;;;4.47;3.67;;;15.50;99.90;;;;;;5075216;28;20160;-52
2021/06/14 03:56:25;;;;;;;4.80;3.87;;;15.60;99.90;;;;;;5057418;28;20215;-52
2021/06/14 03:58:50;;;;;;;5.50;4.30;;;15.60;99.90;;;;;;5074886;28;20462;-54
2021/06/14 04:01:16;;;;;;;7.53;4.33;;;15.60;99.90;;;;;;5074825;28;20419;-53
2021/06/14 04:03:44;;;;;;;4.33;3.93;;;15.60;99.90;;;;;;5075035;28;20651;-54
2021/06/14 04:06:09;;;;;;;7.13;4.20;;;15.60;99.90;;;;;;5075570;28;20161;-52
2021/06/14 04:08:38;;;;;;;4.60;3.70;;;15.60;99.90;;;;;;5075421;28;20734;-51
2021/06/14 04:11:04;;;;;;;4.53;4.13;;;15.60;99.90;;;;;;5075879;28;20189;-54
2021/06/14 04:13:30;;;;;;;5.20;4.33;;;15.60;99.90;;;;;;5074758;28;20444;-51
2021/06/14 04:15:56;;;;;;;4.90;4.13;;;15.60;99.90;;;;;;5074709;28;20888;-52
2021/06/14 04:18:21;;;;;;;4.03;3.63;;;15.60;99.90;;;;;;5075120;28;20163;-54
2021/06/14 04:20:47;;;;;;;6.70;4.30;;;15.70;99.90;;;;;;5073837;28;20189;-51
2021/06/14 04:23:13;;;;;;;4.50;4.07;;;15.80;99.90;;;;;;5074661;28;20177;-53
2021/06/14 04:25:39;;;;;;;5.97;4.57;;;15.80;99.90;;;;;;5074469;28;20224;-51
2021/06/14 04:28:07;;;;;;;4.60;4.20;;;15.90;99.90;;;;;;5074377;28;20402;-54
2021/06/14 04:30:34;;;;;;;7.83;5.33;;;15.90;99.90;;;;;;5074218;28;20162;-51
2021/06/14 04:32:59;;;;;;;5.27;4.30;;;16.00;99.90;;;;;;5074556;28;20403;-51
2021/06/14 04:35:25;;;;;;;5.13;4.30;;;16.00;99.90;;;;;;5074473;28;20401;-51
2021/06/14 04:37:51;;;;;;;4.90;4.40;;;16.00;99.90;;;;;;5074354;28;20219;-50
2021/06/14 04:40:16;;;;;;;5.10;4.00;;;16.10;99.90;;;;;;5074273;28;20181;-51
2021/06/14 04:42:42;;;;;;;7.17;4.80;;;16.10;99.90;;;;;;5073922;28;20684;-51
2021/06/14 04:45:08;;;;;;;5.07;4.53;;;16.10;99.90;;;;;;5074483;28;20191;-49
2021/06/14 04:47:34;;;;;;;5.13;4.27;;;16.10;99.90;;;;;;5074022;28;20171;-50
2021/06/14 04:50:01;;;;;;;5.43;4.43;;;16.10;99.90;;;;;;5074037;28;20408;-50
2021/06/14 04:52:28;;;;;;;5.17;3.97;;;16.10;99.90;;;;;;5074261;28;20246;-50
2021/06/14 04:54:54;;;;;;;4.83;4.40;;;16.10;99.90;;;;;;5074127;28;20893;-52
2021/06/14 04:57:20;;;;;;;4.33;3.93;;;16.10;99.90;;;;;;5073735;28;20780;-52
2021/06/14 04:59:46;;;;;;;6.13;5.53;;;16.20;99.90;;;;;;5074209;28;20413;-49
2021/06/14 05:02:11;;;;;;;7.20;5.10;;;16.20;99.90;;;;;;5073555;28;20432;-49
2021/06/14 05:04:37;;;;;;;6.63;4.67;;;16.30;99.90;;;;;;5074009;28;20205;-53
2021/06/14 05:07:03;;;;;;;5.50;4.33;;;16.30;99.90;;;;;;5073960;28;20173;-50
2021/06/14 05:09:28;;;;;;;5.33;4.83;;;16.40;99.90;;;;;;5074211;28;20636;-50
2021/06/14 05:11:54;;;;;;;4.90;4.37;;;16.60;99.90;;;;;;5073506;28;20189;-50
2021/06/14 05:14:20;;;;;;;5.20;4.70;;;16.70;99.90;;;;;;5056006;28;20171;-50
2021/06/14 05:16:45;;;;;;;5.77;5.17;;;16.60;99.90;;;;;;5074040;28;20549;-49
2021/06/14 05:19:11;;;;;;;6.30;5.17;;;16.70;99.90;;;;;;5074145;28;20578;-49
2021/06/14 05:21:37;;;;;;;6.00;4.50;;;16.70;99.90;;;;;;5074010;28;20185;-49
2021/06/14 05:24:03;;;;;;;6.50;5.30;;;16.90;99.90;;;;;;5073601;28;20412;-48
2021/06/14 05:26:29;;;;;;;5.00;4.33;;;17.00;99.90;;;;;;5074041;28;20164;-49
2021/06/14 05:28:55;;;;;;;5.37;4.60;;;17.20;99.90;;;;;;5074036;28;20419;-49
2021/06/14 05:31:21;;;;;;;8.23;4.60;;;17.30;99.90;;;;;;5072986;28;20193;-51
2021/06/14 05:33:46;;;;;;;4.43;4.03;;;17.30;99.90;;;;;;5073705;28;20188;-50
2021/06/14 05:36:12;;;;;;;6.77;4.23;;;17.30;99.90;;;;;;5073958;28;20241;-50
2021/06/14 05:38:37;;;;;;;4.90;3.40;;;17.40;99.90;;;;;;5073648;28;20170;-52
2021/06/14 05:41:03;;;;;;;5.50;4.50;;;17.50;99.90;;;;;;5073570;28;20213;-50
2021/06/14 05:43:29;;;;;;;4.50;3.73;;;17.60;99.90;;;;;;5072379;28;20239;-52
2021/06/14 05:45:55;;;;;;;6.80;3.83;;;17.80;99.90;;;;;;5072450;28;20440;-49
2021/06/14 05:48:21;;;;;;;7.63;4.30;;;17.80;99.90;;;;;;5072762;28;20177;-49
2021/06/14 05:50:46;;;;;;;6.50;3.77;;;18.00;99.90;;;;;;5072326;28;20718;-53
2021/06/14 05:53:12;;;;;;;5.47;3.83;;;18.00;99.90;;;;;;5073097;28;20268;-52
2021/06/14 05:55:38;;;;;;;5.23;3.60;;;18.00;99.90;;;;;;5073351;28;20177;-51
2021/06/14 05:58:03;;;;;;;5.47;4.20;;;18.00;99.90;;;;;;5072898;28;20206;-50
2021/06/14 06:00:29;;;;;;;4.10;3.70;;;18.30;99.90;;;;;;5072845;28;20170;-51
2021/06/14 06:02:55;;;;;;;5.60;3.47;;;18.30;99.90;;;;;;5072687;28;20174;-50
2021/06/14 06:05:21;;;;;;;5.33;3.97;;;18.50;99.90;;;;;;5074378;28;20194;-50
2021/06/14 06:07:46;;;;;;;4.40;3.87;;;18.70;99.90;;;;;;5074265;28;20435;-50
2021/06/14 06:10:13;;;;;;;5.90;3.73;;;18.50;99.90;;;;;;5073072;28;20655;-51
2021/06/14 06:12:39;;;;;;;7.30;3.90;;;18.60;99.90;;;;;;5072847;28;20222;-50
2021/06/14 06:15:08;;;;;;;4.80;3.20;;;18.80;99.90;;;;;;5073204;28;20405;-50
2021/06/14 06:17:33;;;;;;;7.17;3.47;;;19.00;99.90;;;;;;5055203;28;20490;-50
2021/06/14 06:19:59;;;;;;;7.33;4.27;;;18.80;99.70;;;;;;5073556;28;20484;-49
2021/06/14 06:22:25;;;;;;;4.83;3.57;;;18.80;99.40;;;;;;5074453;28;20194;-49
2021/06/14 06:24:50;;;;;;;5.90;3.10;;;18.60;99.80;;;;;;5073374;28;20198;-49
2021/06/14 06:27:16;;;;;;;4.43;3.30;;;18.70;99.70;;;;;;5055409;28;20175;-56
2021/06/14 06:29:42;;;;;;;6.33;4.13;;;18.90;99.50;;;;;;5072760;28;20166;-52
2021/06/14 06:32:08;;;;;;;6.00;3.47;;;18.70;99.20;;;;;;5072624;28;20613;-51
2021/06/14 06:34:34;;;;;;;5.20;3.77;;;18.90;99.60;;;;;;5072679;28;20443;-54
2021/06/14 06:36:59;;;;;;;6.37;4.67;;;19.20;99.40;;;;;;5072768;28;20439;-50
2021/06/14 06:39:25;;;;;;;4.87;3.60;;;19.30;99.60;;;;;;5072928;28;20166;-51
2021/06/14 06:41:51;;;;;;;6.50;3.90;;;19.50;99.50;;;;;;5072651;28;20213;-51
2021/06/14 06:44:17;;;;;;;5.67;3.90;;;19.80;98.70;;;;;;5073736;28;20232;-50
2021/06/14 06:46:42;;;;;;;5.80;3.93;;;19.90;98.30;;;;;;5075826;28;20178;-51
2021/06/14 06:49:08;;;;;;;5.90;3.10;;;19.70;97.80;;;;;;5076244;28;20241;-50
2021/06/14 06:51:33;;;;;;;6.33;3.70;;;19.50;98.30;;;;;;5075842;28;20197;-50
2021/06/14 06:54:12;;;;;;;3.87;3.47;;;19.40;98.10;;;;;;5075918;28;20551;-53
2021/06/14 06:56:39;;;;;;;5.20;3.30;;;19.40;98.30;;;;;;5075896;28;20239;-50
2021/06/14 06:59:05;;;;;;;7.27;4.10;;;19.50;98.10;;;;;;5075875;28;20415;-52
2021/06/14 07:01:31;;;;;;;6.20;3.97;;;19.50;98.00;;;;;;5075674;28;20928;-50
2021/06/14 07:03:56;;;;;;;5.47;3.80;;;19.60;98.10;;;;;;5076569;28;20178;-50
2021/06/14 07:06:22;;;;;;;4.43;3.40;;;19.70;97.60;;;;;;5076187;28;20162;-50
2021/06/14 07:08:47;;;;;;;4.17;3.47;;;19.70;97.50;;;;;;5076066;28;20166;-52
2021/06/14 07:11:13;;;;;;;7.30;4.00;;;19.70;98.00;;;;;;5075705;28;20613;-51
2021/06/14 07:13:39;;;;;;;6.63;3.33;;;19.80;97.80;;;;;;5075771;28;20174;-50
2021/06/14 07:16:04;;;;;;;5.07;3.23;;;19.90;97.10;;;;;;5075460;28;20216;-52
2021/06/14 07:18:30;;;;;;;5.50;3.67;;;20.10;96.80;;;;;;5075600;28;20166;-53
2021/06/14 07:20:58;;;;;;;4.43;3.50;;;20.40;97.20;;;;;;5075577;28;20204;-51
2021/06/14 07:23:24;;;;;;;12.10;3.30;;;20.40;96.00;;;;;;5075476;28;20170;-49
2021/06/14 07:25:50;;;;;;;4.40;3.90;;;20.50;96.00;;;;;;5075606;28;20525;-52
2021/06/14 07:28:16;;;;;;;5.47;3.20;;;20.40;96.10;;;;;;5075634;28;20416;-51
2021/06/14 07:30:42;;;;;;;4.67;3.60;;;20.50;95.70;;;;;;5075257;28;20273;-51
2021/06/14 07:33:08;;;;;;;5.63;4.20;;;20.40;95.80;;;;;;5057145;28;20448;-50
2021/06/14 07:35:35;;;;;;;3.70;3.17;;;20.50;96.30;;;;;;5076145;28;20249;-51
2021/06/14 07:38:01;;;;;;;6.33;2.80;;;20.60;95.90;;;;;;5075306;28;20214;-50
2021/06/14 07:40:28;;;;;;;5.37;3.43;;;20.70;95.80;;;;;;5075462;28;20412;-49
2021/06/14 07:42:53;;;;;;;5.30;3.80;;;20.70;96.00;;;;;;5074975;28;20147;-48
2021/06/14 07:45:24;;;;;;;3.80;3.10;;;20.90;95.70;;;;;;5075050;28;20524;-49
2021/06/14 07:47:50;;;;;;;4.30;3.13;;;21.10;95.60;;;;;;5074923;28;20163;-51
2021/06/14 07:50:16;;;;;;;6.17;3.50;;;21.20;95.10;;;;;;5074894;28;20499;-49
2021/06/14 07:52:42;;;;;;;3.70;3.13;;;21.10;95.40;;;;;;5075430;28;20781;-51
2021/06/14 07:55:09;;;;;;;6.50;3.40;;;21.20;94.90;;;;;;5075015;28;20507;-50
2021/06/14 07:57:34;;;;;;;7.03;3.27;;;21.20;95.20;;;;;;5077368;28;20169;-53
2021/06/14 08:00:00;;;;;;;8.40;3.83;;;21.20;95.90;;;;;;5074874;28;20412;-50
2021/06/14 08:02:26;;;;;;;5.10;3.63;;;21.20;95.60;;;;;;5074683;28;20217;-50
2021/06/14 08:04:51;;;;;;;4.27;3.37;;;21.40;94.90;;;;;;5075060;28;20575;-50
2021/06/14 08:07:17;;;;;;;6.07;4.00;;;21.40;94.80;;;;;;5075095;28;20170;-51
2021/06/14 08:09:45;;;;;;;6.93;3.50;;;21.70;95.30;;;;;;5074794;28;20223;-51
2021/06/14 08:12:10;;;;;;;5.73;3.70;;;21.80;95.40;;;;;;5056742;28;20194;-51
2021/06/14 08:14:36;;;;;;;4.73;3.20;;;21.70;94.70;;;;;;5074431;28;20415;-51
2021/06/14 08:17:03;;;;;;;3.80;3.10;;;21.80;94.10;;;;;;5074586;28;20634;-50
2021/06/14 08:19:39;;;;;;;12.13;4.83;;;21.90;95.00;;;;;;5074876;28;20185;-52
2021/06/14 08:22:27;;;;;;;5.00;3.33;;;21.90;94.00;;;;;;5074352;28;20427;-51
2021/06/14 08:25:07;;;;;;;6.67;3.60;;;22.00;94.40;;;;;;5074468;28;20887;-50
2021/06/14 08:27:41;;;;;;;3.80;2.80;;;21.90;94.60;;;;;;5074110;28;20468;-51
2021/06/14 08:30:10;;;;;;;4.90;2.90;;;22.00;93.90;;;;;;5074480;28;20403;-53
2021/06/14 08:32:36;;;;;;;3.70;3.13;;;22.20;94.40;;;;;;5073912;28;20515;-52
2021/06/14 08:35:07;;;;;;;2.93;2.70;;;22.20;93.40;;;;;;5056446;28;20419;-50
2021/06/14 08:37:33;;;;;;;5.13;3.77;;;22.10;93.20;;;;;;5074363;28;20877;-53
2021/06/14 08:39:59;;;;;;;5.60;3.20;;;22.20;91.70;;;;;;5074032;28;20503;-50
2021/06/14 08:42:25;;;;;;;5.07;2.77;;;22.00;92.10;;;;;;5097347;22;21099;-58
2021/06/14 08:44:50;;;;;;;3.13;2.80;;;22.20;92.40;;;;;;5063945;28;20194;-54
2021/06/14 08:47:17;;;;;;;4.50;2.83;;;22.30;92.50;;;;;;5054027;28;20190;-57
2021/06/14 08:49:44;;;;;;;3.80;3.27;;;22.50;91.40;;;;;;5054060;28;20596;-57
2021/06/14 08:52:10;;;;;;;4.63;2.80;;;22.40;91.10;;;;;;5053753;28;20431;-58
2021/06/14 08:54:41;;;;;;;4.70;3.23;;;22.40;90.40;;;;;;5053929;28;20404;-55
2021/06/14 08:57:07;;;;;;;4.33;3.03;;;22.50;90.20;;;;;;5054301;28;20476;-57
2021/06/14 08:59:33;;;;;;;6.00;2.97;;;22.60;90.40;;;;;;5053503;28;20423;-58
2021/06/14 09:01:59;;;;;;;3.80;2.77;;;22.50;89.90;;;;;;5053691;28;20504;-56
2021/06/14 09:04:25;;;;;;;4.90;2.63;;;22.60;89.70;;;;;;5054260;28;20602;-56
2021/06/14 09:06:51;;;;;;;5.00;3.27;;;22.50;87.80;;;;;;5053438;28;20409;-57
2021/06/14 09:09:16;;;;;;;4.47;3.13;;;22.60;88.50;;;;;;5054351;28;20166;-56
2021/06/14 09:11:53;;;;;;;3.40;2.80;;;22.80;89.10;;;;;;5053532;28;20178;-56
2021/06/14 09:14:24;;;;;;;4.03;3.23;;;22.90;87.80;;;;;;5053712;28;20245;-56
2021/06/14 09:16:54;;;;;;;3.90;2.83;;;23.10;88.40;;;;;;5053425;28;20385;-57
2021/06/14 09:19:32;;;;;;;3.77;2.67;;;23.20;89.40;;;;;;5054115;28;20474;-58
2021/06/14 09:22:20;;;;;;;3.90;2.90;;;23.30;89.30;;;;;;5053460;28;20531;-56
2021/06/14 09:25:10;;;;;;;3.73;3.43;;;23.40;89.30;;;;;;5054109;28;20733;-56
2021/06/14 09:27:42;;;;;;;3.73;3.10;;;23.40;85.00;;;;;;5053859;28;20810;-56
2021/06/14 09:30:21;;;;;;;4.90;3.07;;;23.50;89.90;;;;;;5035897;28;20389;-57
2021/06/14 09:33:06;;;;;;;10.00;4.20;;;23.60;87.80;;;;;;5053538;28;20470;-57
2021/06/14 09:35:33;;;;;;;6.40;3.23;;;23.70;89.00;;;;;;5053961;28;20414;-56
2021/06/14 09:38:08;;;;;;;3.23;2.83;;;23.80;87.30;;;;;;5053286;28;20416;-58
2021/06/14 09:40:35;;;;;;;6.50;3.13;;;23.80;85.40;;;;;;5053598;28;20539;-58
2021/06/14 09:43:03;;;;;;;3.23;2.93;;;23.70;88.20;;;;;;5053141;28;20521;-56
2021/06/14 09:45:29;;;;;;;3.33;3.00;;;23.80;87.90;;;;;;5053442;28;20593;-59
2021/06/14 09:47:55;;;;;;;5.00;2.87;;;23.90;87.30;;;;;;5052825;28;20409;-57
2021/06/14 09:50:30;;;;;;;5.33;3.10;;;23.90;87.20;;;;;;5053538;28;20512;-58
2021/06/14 09:53:10;;;;;;;5.47;3.10;;;24.00;85.30;;;;;;5053228;28;20231;-57
2021/06/14 09:55:37;;;;;;;4.17;3.40;;;23.90;85.30;;;;;;5053261;28;20413;-57
2021/06/14 09:58:29;;;;;;;3.17;2.77;;;23.90;83.10;;;;;;5055577;28;20409;-55
2021/06/14 10:01:03;;;;;;;3.20;2.90;;;23.80;84.20;;;;;;5051011;28;20417;-58
2021/06/14 10:03:44;;;;;;;6.50;3.70;;;24.00;85.20;;;;;;5034816;28;20492;-57
2021/06/14 10:06:10;;;;;;;4.23;3.50;;;24.20;84.50;;;;;;5053346;28;20483;-56
2021/06/14 10:08:37;;;;;;;3.80;2.87;;;24.30;86.30;;;;;;5053645;28;20401;-58
2021/06/14 10:11:16;;;;;;;4.30;3.43;;;24.60;86.50;;;;;;5053303;28;20470;-57
2021/06/14 10:13:47;;;;;;;4.50;3.20;;;24.80;83.10;;;;;;5053336;28;20801;-59
2021/06/14 10:16:23;;;;;;;7.17;3.03;;;24.90;83.00;;;;;;5053036;28;20408;-55
2021/06/14 10:18:53;;;;;;;4.03;3.07;;;24.90;83.80;;;;;;5053668;28;20476;-56
2021/06/14 10:21:24;;;;;;;4.63;2.97;;;25.10;85.10;;;;;;5056828;28;20437;-57
2021/06/14 10:23:55;;;;;;;3.53;3.23;;;25.10;83.30;;;;;;5056551;28;20416;-57
2021/06/14 10:26:22;;;;;;;4.20;3.53;;;25.30;81.00;;;;;;5056925;28;20385;-55
2021/06/14 10:28:48;;;;;;;5.90;3.30;;;25.10;80.60;;;;;;5056624;28;20392;-57
2021/06/14 10:31:14;;;;;;;5.70;3.13;;;25.10;84.20;;;;;;5038746;28;20861;-57
2021/06/14 10:33:41;;;;;;;3.27;2.97;;;25.20;80.80;;;;;;5056313;28;20492;-56
2021/06/14 10:36:07;;;;;;;4.27;2.93;;;25.40;78.60;;;;;;5056425;28;20171;-58
2021/06/14 10:38:38;;;;;;;5.13;3.40;;;25.60;77.80;;;;;;5056741;28;20401;-56
2021/06/14 10:41:05;;;;;;;3.10;2.70;;;25.40;78.70;;;;;;5056490;28;20452;-56
2021/06/14 10:43:31;;;;;;;3.83;2.87;;;25.40;77.80;;;;;;5056618;28;20389;-58
2021/06/14 10:45:58;;;;;;;4.90;2.73;;;25.50;78.20;;;;;;5056122;28;20448;-59
2021/06/14 10:48:34;;;;;;;4.03;2.93;;;25.70;79.20;;;;;;5057070;28;20823;-57
2021/06/14 10:51:02;;;;;;;4.83;3.23;;;25.50;76.90;;;;;;5056102;28;20511;-58
2021/06/14 10:53:32;;;;;;;3.80;2.97;;;25.40;76.20;;;;;;5056067;28;20417;-58
2021/06/14 10:56:03;;;;;;;5.17;2.33;;;25.40;75.40;;;;;;5056180;28;20471;-58
2021/06/14 10:58:30;;;;;;;2.90;2.70;;;25.60;77.90;;;;;;5056020;28;20800;-56
2021/06/14 11:01:01;;;;;;;3.60;2.73;;;26.00;73.70;;;;;;5055831;28;20409;-55
2021/06/14 11:03:41;;;;;;;2.70;2.40;;;26.00;76.60;;;;;;5055605;28;20413;-57
2021/06/14 11:06:24;;;;;;;5.30;2.50;;;26.00;71.40;;;;;;5055864;28;20452;-54
2021/06/14 11:09:02;;;;;;;4.30;2.83;;;26.10;71.20;;;;;;5056148;28;20798;-59
2021/06/14 11:11:28;;;;;;;3.80;2.83;;;26.30;71.40;;;;;;5037839;28;20522;-57
2021/06/14 11:13:54;;;;;;;3.40;2.53;;;25.70;71.40;;;;;;5055622;28;20496;-57
2021/06/14 11:16:20;;;;;;;5.20;3.23;;;25.80;74.60;;;;;;5055778;28;20269;-57
2021/06/14 11:18:47;;;;;;;4.83;2.73;;;26.10;75.00;;;;;;5055624;28;20413;-57
2021/06/14 11:21:22;;;;;;;3.90;2.80;;;26.30;70.70;;;;;;5055748;28;20433;-56
2021/06/14 11:23:49;;;;;;;5.67;3.00;;;26.50;67.80;;;;;;5055655;28;20448;-58
2021/06/14 11:26:30;;;;;;;5.83;2.60;;;26.40;69.40;;;;;;5055447;28;20451;-57
2021/06/14 11:28:56;;;;;;;3.63;2.60;;;26.80;69.40;;;;;;5055240;28;20405;-58
2021/06/14 11:31:25;;;;;;;3.13;2.43;;;27.30;68.70;;;;;;5055052;28;20460;-58
2021/06/14 11:33:53;;;;;;;3.00;2.80;;;28.60;66.40;;;;;;5055456;28;20409;-58
2021/06/14 11:36:26;;;;;;;2.90;2.70;;;30.20;62.90;;;;;;5054473;28;20431;-56
2021/06/14 11:38:53;;;;;;;4.70;2.13;;;31.10;59.10;;;;;;5055303;28;20475;-56
2021/06/14 11:41:28;;;;;;;5.23;2.00;;;31.80;55.20;;;;;;5055278;28;20543;-58
2021/06/14 11:44:18;;;;;;;2.93;2.47;;;33.20;54.20;;;;;;5055719;28;20930;-57
2021/06/14 11:46:44;;;;;;;3.07;2.57;;;32.90;52.80;;;;;;5055335;28;20502;-58
2021/06/14 11:49:11;;;;;;;5.10;2.53;;;33.50;50.80;;;;;;5055275;28;20480;-58
2021/06/14 11:51:37;;;;;;;3.40;2.47;;;34.30;46.50;;;;;;5057420;28;20413;-57
2021/06/14 11:54:04;;;;;;;4.17;2.00;;;33.80;47.10;;;;;;5036956;28;20413;-57
2021/06/14 11:56:36;;;;;;;1.90;1.70;;;34.00;47.30;;;;;;5054860;28;20476;-58
2021/06/14 11:59:03;;;;;;;3.03;2.23;;;34.90;43.90;;;;;;5054899;28;20380;-57
2021/06/14 12:01:35;;;;;;;2.57;1.77;;;35.60;42.60;;;;;;5054924;28;20562;-58
2021/06/14 12:04:06;;;;;;;2.67;2.00;;;34.60;43.30;;;;;;5054373;28;20447;-57
2021/06/14 12:06:46;;;;;;;3.47;2.03;;;34.40;42.50;;;;;;5054790;28;20389;-56
2021/06/14 12:09:17;;;;;;;2.20;2.00;;;36.20;41.60;;;;;;5054965;28;20385;-58
2021/06/14 12:11:44;;;;;;;2.63;2.43;;;35.50;41.90;;;;;;5054874;28;20436;-58
2021/06/14 12:14:13;;;;;;;4.60;2.33;;;35.20;41.40;;;;;;5054366;28;20448;-59
2021/06/14 12:16:39;;;;;;;2.77;2.27;;;35.90;41.20;;;;;;5054654;28;20405;-58
2021/06/14 12:19:05;;;;;;;2.30;2.00;;;35.10;42.40;;;;;;5054490;28;20970;-58
2021/06/14 12:21:30;;;;;;;1.97;1.83;;;35.00;38.30;;;;;;5036579;28;20241;-57
2021/06/14 12:23:56;;;;;;;3.37;2.10;;;36.60;39.10;;;;;;5054627;28;20625;-59
2021/06/14 12:26:22;;;;;;;4.60;2.37;;;37.00;37.30;;;;;;5054519;28;20256;-57
2021/06/14 12:28:47;;;;;;;3.57;2.43;;;37.00;37.40;;;;;;5036342;28;20166;-57
2021/06/14 12:31:14;;;;;;;3.13;2.10;;;36.10;38.60;;;;;;5054198;28;20190;-58
2021/06/14 12:33:42;;;;;;;2.80;1.50;;;37.20;36.30;;;;;;5053996;28;20171;-55
2021/06/14 12:36:09;;;;;;;3.00;1.97;;;36.10;37.60;;;;;;5054603;28;20467;-58
2021/06/14 12:38:35;;;;;;;2.37;2.03;;;36.60;38.50;;;;;;5054062;28;20500;-57
2021/06/14 12:41:03;;;;;;;5.10;2.00;;;37.00;37.90;;;;;;5052922;28;20475;-59
2021/06/14 12:43:33;;;;;;;6.33;2.07;;;36.40;38.60;;;;;;5053889;28;20792;-58
2021/06/14 12:45:58;;;;;;;4.07;1.67;;;35.40;38.10;;;;;;5054082;28;20536;-57
2021/06/14 12:48:25;;;;;;;2.27;1.80;;;35.20;38.90;;;;;;5035715;28;20445;-58
2021/06/14 12:50:53;;;;;;;3.73;2.03;;;34.40;40.60;;;;;;5054090;28;20181;-57
2021/06/14 12:53:22;;;;;;;4.47;2.30;;;35.30;38.80;;;;;;5054042;28;20405;-58